createdAt,value
2023-04-12T00:02:01.207Z,31.00
2023-04-12T00:06:01.134Z,31.00
2023-04-12T00:10:01.082Z,30.99
2023-04-12T00:14:01.043Z,30.98
2023-04-12T00:18:01.262Z,30.99
2023-04-12T00:22:01.498Z,31.01
2023-04-12T00:26:01.440Z,30.98
2023-04-12T00:30:01.490Z,30.98
2023-04-12T00:34:01.352Z,30.99
2023-04-12T00:38:01.344Z,31.02
2023-04-12T00:42:01.271Z,30.99
2023-04-12T00:46:01.219Z,30.96
2023-04-12T00:50:01.211Z,30.98
2023-04-12T00:54:01.213Z,30.98
2023-04-12T00:58:01.129Z,30.96
2023-04-12T01:02:01.270Z,30.94
2023-04-12T01:06:01.078Z,30.94
2023-04-12T01:10:01.023Z,30.96
2023-04-12T01:14:01.133Z,30.94
2023-04-12T01:18:00.992Z,30.93
2023-04-12T01:22:00.954Z,30.96
2023-04-12T01:26:00.913Z,30.96
2023-04-12T01:30:00.860Z,30.93
2023-04-12T01:34:00.810Z,30.94
2023-04-12T01:38:00.789Z,30.91
2023-04-12T01:42:00.804Z,30.92
2023-04-12T01:46:00.927Z,30.93
2023-04-12T01:50:01.085Z,30.95
2023-04-12T01:54:01.280Z,30.94
2023-04-12T01:58:01.450Z,30.96
2023-04-12T02:02:01.685Z,30.93
2023-04-12T02:06:01.799Z,30.92
2023-04-12T02:10:01.857Z,30.90
2023-04-12T02:14:01.893Z,30.91
2023-04-12T02:18:01.990Z,30.94
2023-04-12T02:22:02.021Z,30.94
2023-04-12T02:26:02.018Z,30.90
2023-04-12T02:30:02.032Z,30.91
2023-04-12T02:34:02.027Z,30.94
2023-04-12T02:38:01.999Z,30.88
2023-04-12T02:42:01.985Z,30.89
2023-04-12T02:46:01.951Z,30.87
2023-04-12T02:50:01.919Z,30.89
2023-04-12T02:54:01.905Z,30.89
2023-04-12T02:58:01.871Z,30.86
2023-04-12T03:02:01.910Z,30.86
2023-04-12T03:06:01.866Z,30.87
2023-04-12T03:10:01.824Z,30.87
2023-04-12T03:14:01.844Z,30.89
2023-04-12T03:18:02.000Z,30.84
2023-04-12T03:22:01.793Z,30.86
2023-04-12T03:26:01.801Z,30.83
2023-04-12T03:30:01.776Z,30.86
2023-04-12T03:34:01.799Z,30.85
2023-04-12T03:38:01.763Z,30.86
2023-04-12T03:42:01.755Z,30.85
2023-04-12T03:46:01.791Z,30.81
2023-04-12T03:54:01.674Z,30.84
2023-04-12T03:58:01.617Z,30.82
2023-04-12T04:02:01.650Z,30.85
2023-04-12T04:06:01.607Z,30.82
2023-04-12T04:10:01.538Z,30.83
2023-04-12T04:14:01.510Z,30.83
2023-04-12T04:18:01.521Z,30.82
2023-04-12T04:22:01.437Z,30.82
2023-04-12T04:26:01.389Z,30.80
2023-04-12T04:30:01.391Z,30.80
2023-04-12T04:34:01.352Z,30.81
2023-04-12T04:38:01.327Z,30.77
2023-04-12T04:42:01.277Z,30.81
2023-04-12T04:46:01.274Z,30.80
2023-04-12T04:50:01.212Z,30.79
2023-04-12T04:54:01.164Z,30.82
2023-04-12T04:58:01.115Z,30.80
2023-04-12T05:02:01.156Z,30.80
2023-04-12T05:06:01.041Z,30.77
2023-04-12T05:10:01.006Z,30.74
2023-04-12T05:14:00.971Z,30.70
2023-04-12T05:18:01.005Z,30.66
2023-04-12T05:22:00.893Z,30.57
2023-04-12T05:26:00.886Z,30.46
2023-04-12T05:30:00.833Z,30.37
2023-04-12T05:34:00.819Z,30.27
2023-04-12T05:38:00.740Z,30.24
2023-04-12T05:42:00.711Z,30.17
2023-04-12T05:46:00.804Z,30.17
2023-04-12T05:50:00.744Z,30.37
2023-04-12T05:54:00.690Z,31.86
2023-04-12T05:58:00.701Z,33.26
2023-04-12T06:02:00.745Z,34.41
2023-04-12T06:06:00.584Z,35.68
2023-04-12T06:10:00.574Z,36.83
2023-04-12T06:14:00.525Z,35.83
2023-04-12T06:18:00.773Z,35.70
2023-04-12T06:22:00.480Z,35.87
2023-04-12T06:26:00.415Z,35.58
2023-04-12T06:30:00.378Z,35.44
2023-04-12T06:34:00.310Z,35.34
2023-04-12T06:38:00.316Z,35.38
2023-04-12T06:42:00.299Z,35.50
2023-04-12T06:46:00.332Z,35.31
2023-04-12T06:50:00.367Z,35.44
2023-04-12T06:54:00.413Z,35.90
2023-04-12T06:58:00.468Z,36.13
2023-04-12T07:02:00.710Z,36.66
2023-04-12T07:06:05.459Z,37.04
2023-04-12T07:10:01.575Z,37.39
2023-04-12T07:14:00.562Z,37.69
2023-04-12T07:18:00.546Z,38.10
2023-04-12T07:22:00.681Z,36.79
2023-04-12T07:26:00.680Z,40.97
2023-04-12T07:30:00.808Z,39.20
2023-04-12T07:34:01.020Z,38.17
2023-04-12T07:38:01.115Z,37.96
2023-04-12T07:42:01.244Z,38.02
2023-04-12T07:46:01.351Z,38.17
2023-04-12T07:50:01.297Z,37.62
2023-04-12T07:54:02.232Z,37.70
2023-04-12T07:58:01.435Z,38.21
2023-04-12T08:02:01.538Z,38.93
2023-04-12T08:06:01.456Z,39.38
2023-04-12T08:10:01.412Z,39.68
2023-04-12T08:14:01.315Z,39.49
2023-04-12T08:18:01.298Z,40.08
2023-04-12T08:22:01.249Z,40.87
2023-04-12T08:26:01.224Z,41.76
2023-04-12T08:30:01.182Z,41.98
2023-04-12T08:34:01.139Z,42.17
2023-04-12T08:38:01.093Z,42.69
2023-04-12T08:42:01.225Z,43.03
2023-04-12T08:46:01.075Z,42.59
2023-04-12T08:50:00.979Z,41.27
2023-04-12T08:54:01.069Z,40.25
2023-04-12T08:58:01.273Z,39.32
2023-04-12T09:02:01.338Z,38.64
2023-04-12T09:06:01.337Z,37.97
2023-04-12T09:10:01.304Z,37.53
2023-04-12T09:14:01.672Z,37.18
2023-04-12T09:18:01.463Z,36.84
2023-04-12T09:22:01.521Z,36.50
2023-04-12T09:26:01.607Z,36.17
2023-04-12T09:30:01.770Z,35.78
2023-04-12T09:34:01.800Z,35.40
2023-04-12T09:38:01.836Z,34.94
2023-04-12T09:42:01.962Z,34.65
2023-04-12T09:46:02.225Z,34.31
2023-04-12T09:50:02.172Z,33.94
2023-04-12T09:54:02.281Z,33.56
2023-04-12T09:58:02.470Z,33.58
2023-04-12T10:02:02.767Z,33.61
2023-04-12T10:06:02.536Z,33.62
2023-04-12T10:10:02.687Z,33.65
2023-04-12T10:14:03.309Z,33.65
2023-04-12T10:18:03.015Z,33.55
2023-04-12T10:22:03.041Z,33.63
2023-04-12T10:26:03.191Z,33.58
2023-04-12T10:30:03.305Z,33.50
2023-04-12T10:34:03.494Z,33.49
2023-04-12T10:38:03.621Z,33.41
2023-04-12T10:42:03.813Z,33.34
2023-04-12T10:46:03.910Z,33.31
2023-04-12T10:50:04.163Z,33.39
2023-04-12T10:54:04.262Z,33.63
2023-04-12T10:58:04.252Z,33.55
2023-04-12T11:02:05.330Z,33.45
2023-04-12T11:06:16.114Z,33.46
2023-04-12T11:10:05.309Z,33.75
2023-04-12T11:14:04.258Z,34.11
2023-04-12T11:18:04.272Z,34.32
2023-04-12T11:22:04.230Z,34.56
2023-04-12T11:26:04.225Z,34.72
2023-04-12T11:30:04.154Z,34.82
2023-04-12T11:34:04.100Z,35.06
2023-04-12T11:38:04.101Z,34.90
2023-04-12T11:42:04.036Z,35.13
2023-04-12T11:46:04.009Z,34.95
2023-04-12T11:50:04.134Z,34.94
2023-04-12T11:54:04.337Z,33.76
2023-04-12T11:58:04.394Z,34.24
2023-04-12T12:02:17.150Z,33.94
2023-04-12T12:06:05.818Z,33.46
2023-04-12T12:10:04.489Z,33.39
2023-04-12T12:14:04.607Z,33.27
2023-04-12T12:18:04.854Z,33.21
2023-04-12T12:22:04.990Z,32.66
2023-04-12T12:26:17.045Z,33.00
2023-04-12T12:30:05.916Z,32.94
2023-04-12T12:34:07.504Z,32.61
2023-04-12T12:38:04.858Z,32.67
2023-04-12T12:42:04.824Z,32.66
2023-04-12T12:46:04.785Z,32.51
2023-04-12T12:50:04.747Z,32.74
2023-04-12T12:54:04.795Z,32.46
2023-04-12T12:58:07.513Z,32.60
2023-04-12T13:02:11.943Z,32.69
2023-04-12T13:06:04.703Z,32.63
2023-04-12T13:10:04.691Z,32.61
2023-04-12T13:14:04.652Z,32.68
2023-04-12T13:18:04.659Z,32.68
2023-04-12T13:22:04.559Z,32.69
2023-04-12T13:26:04.710Z,32.67
2023-04-12T13:30:04.742Z,32.66
2023-04-12T13:34:04.647Z,32.63
2023-04-12T13:38:04.622Z,32.76
2023-04-12T13:42:04.586Z,32.95
2023-04-12T13:46:04.584Z,33.02
2023-04-12T13:50:04.510Z,33.09
2023-04-12T13:54:04.457Z,33.11
2023-04-12T13:58:04.453Z,33.10
2023-04-12T14:02:04.439Z,33.09
2023-04-12T14:06:04.399Z,33.21
2023-04-12T14:10:04.408Z,33.16
2023-04-12T14:14:04.304Z,33.14
2023-04-12T14:18:04.320Z,33.10
2023-04-12T14:22:04.235Z,32.93
2023-04-12T14:26:04.204Z,32.87
2023-04-12T14:30:04.205Z,32.89
2023-04-12T14:34:04.335Z,32.94
2023-04-12T14:38:04.105Z,33.06
2023-04-12T14:42:04.049Z,33.18
2023-04-12T14:46:04.028Z,33.19
2023-04-12T14:50:04.340Z,33.13
2023-04-12T14:54:04.056Z,33.04
2023-04-12T14:58:04.145Z,33.05
2023-04-12T15:02:04.289Z,32.96
2023-04-12T15:06:04.407Z,32.94
2023-04-12T15:10:04.539Z,33.08
2023-04-12T15:14:04.636Z,33.07
2023-04-12T15:18:04.813Z,33.07
2023-04-12T15:22:04.969Z,33.13
2023-04-12T15:26:05.145Z,33.16
2023-04-12T15:30:05.285Z,33.21
2023-04-12T15:34:05.464Z,33.47
2023-04-12T15:38:05.662Z,33.64
2023-04-12T15:42:05.833Z,33.62
2023-04-12T15:46:06.120Z,33.94
2023-04-12T15:50:05.989Z,34.15
2023-04-12T15:54:06.057Z,34.23
2023-04-12T15:58:05.905Z,34.33
2023-04-12T16:02:05.985Z,34.81
2023-04-12T16:06:05.812Z,34.58
2023-04-12T16:10:05.788Z,34.41
2023-04-12T16:14:05.734Z,34.27
2023-04-12T16:18:05.755Z,34.11
2023-04-12T16:22:05.649Z,34.06
2023-04-12T16:26:05.684Z,34.06
2023-04-12T16:30:05.619Z,34.02
2023-04-12T16:34:05.569Z,34.32
2023-04-12T16:38:05.545Z,34.01
2023-04-12T16:42:05.554Z,33.65
2023-04-12T16:46:05.583Z,33.63
2023-04-12T16:50:05.700Z,34.15
2023-04-12T16:54:05.919Z,34.76
2023-04-12T16:58:06.041Z,35.27
2023-04-12T17:02:06.172Z,35.62
2023-04-12T17:06:06.236Z,35.99
2023-04-12T17:10:06.239Z,36.54
2023-04-12T17:14:06.276Z,36.88
2023-04-12T17:18:06.550Z,37.08
2023-04-12T17:22:06.751Z,37.36
2023-04-12T17:26:06.949Z,37.73
2023-04-12T17:30:07.047Z,37.90
2023-04-12T17:34:07.176Z,38.26
2023-04-12T17:38:07.240Z,38.41
2023-04-12T17:42:07.229Z,38.89
2023-04-12T17:46:07.394Z,39.07
2023-04-12T17:50:07.362Z,39.16
2023-04-12T17:54:07.422Z,38.96
2023-04-12T17:58:07.521Z,38.86
2023-04-12T18:02:07.765Z,38.73
2023-04-12T18:06:07.766Z,38.68
2023-04-12T18:10:08.008Z,38.92
2023-04-12T18:14:08.193Z,38.77
2023-04-12T18:18:08.360Z,38.62
2023-04-12T18:22:08.274Z,38.45
2023-04-12T18:26:08.274Z,38.36
2023-04-12T18:30:08.350Z,38.38
2023-04-12T18:34:08.330Z,39.19
2023-04-12T18:38:08.369Z,39.16
2023-04-12T18:42:08.335Z,39.17
2023-04-12T18:46:08.368Z,39.49
2023-04-12T18:50:08.358Z,39.44
2023-04-12T18:54:08.359Z,39.93
2023-04-12T18:58:08.382Z,40.11
2023-04-12T19:02:08.420Z,40.14
2023-04-12T19:06:08.405Z,39.90
2023-04-12T19:10:08.371Z,39.90
2023-04-12T19:14:08.385Z,40.06
2023-04-12T19:18:08.378Z,40.06
2023-04-12T19:22:08.350Z,40.23
2023-04-12T19:26:08.380Z,40.33
2023-04-12T19:30:08.286Z,40.42
2023-04-12T19:34:08.290Z,40.56
2023-04-12T19:38:08.286Z,40.58
2023-04-12T19:42:08.322Z,40.49
2023-04-12T19:46:08.346Z,40.39
2023-04-12T19:50:08.349Z,40.43
2023-04-12T19:54:08.416Z,40.58
2023-04-12T19:58:08.471Z,40.68
2023-04-12T20:02:08.558Z,40.85
2023-04-12T20:06:08.520Z,40.32
2023-04-12T20:10:08.550Z,39.96
2023-04-12T20:14:08.541Z,39.64
2023-04-12T20:18:08.596Z,39.43
2023-04-12T20:22:08.628Z,39.29
2023-04-12T20:26:08.724Z,39.18
2023-04-12T20:30:08.972Z,39.00
2023-04-12T20:34:08.878Z,38.92
2023-04-12T20:38:09.092Z,38.87
2023-04-12T20:42:09.188Z,38.76
2023-04-12T20:46:09.338Z,38.71
2023-04-12T20:50:09.474Z,38.68
2023-04-12T20:54:09.634Z,38.62
2023-04-12T20:58:09.734Z,38.57
2023-04-12T21:06:28.735Z,38.51
2023-04-12T21:10:28.763Z,38.42
2023-04-12T21:14:28.893Z,38.34
2023-04-12T21:18:29.056Z,38.28
2023-04-12T21:22:29.148Z,38.25
2023-04-12T21:26:29.289Z,38.22
2023-04-12T21:30:29.486Z,38.15
2023-04-12T21:34:29.654Z,38.09
2023-04-12T21:38:29.806Z,38.03
2023-04-12T21:42:30.018Z,38.03
2023-04-12T21:46:30.191Z,37.97
2023-04-12T21:50:30.434Z,37.93
2023-04-12T21:54:30.648Z,37.88
2023-04-12T21:58:30.838Z,37.82
2023-04-12T22:02:31.150Z,37.76
2023-04-12T22:06:31.229Z,37.74
2023-04-12T22:10:31.468Z,37.70
2023-04-12T22:14:31.390Z,37.65
2023-04-12T22:18:31.383Z,37.62
2023-04-12T22:22:31.353Z,37.62
2023-04-12T22:26:31.309Z,37.51
2023-04-12T22:30:31.292Z,37.51
2023-04-12T22:34:31.218Z,37.52
2023-04-12T22:38:31.169Z,37.45
2023-04-12T22:42:31.154Z,37.42
2023-04-12T22:46:31.139Z,37.39
2023-04-12T22:50:31.177Z,37.37
2023-04-12T22:54:31.095Z,37.29
2023-04-12T22:58:31.084Z,37.28
2023-04-12T23:02:31.092Z,37.28
2023-04-12T23:06:31.001Z,37.26
2023-04-12T23:10:30.973Z,37.23
2023-04-12T23:14:30.951Z,37.22
2023-04-12T23:18:30.937Z,37.17
2023-04-12T23:22:38.283Z,37.15
2023-04-12T23:26:31.837Z,37.15
2023-04-12T23:30:30.806Z,37.08
2023-04-12T23:34:30.749Z,37.08
2023-04-12T23:38:30.760Z,37.04
2023-04-12T23:42:30.813Z,36.99
2023-04-12T23:46:30.971Z,36.97
2023-04-12T23:50:31.043Z,36.98
2023-04-12T23:54:31.161Z,36.94
2023-04-12T23:58:31.240Z,36.90
